Details From KCRW - Charleston Yeager
To KLYH - LYNCHBURG RGNL PRESTON GLENN FLD
Flight Number -
Tags decoded
Created
Modified
Stats Distance 130 nm / 240 km
Max Altitude 0 ft / 0 m
Waypoints 2
Social Downloads 2
Likes 0
Share

Download

Looking for another format? Having issues loading an existing format? Contact us
Advertisement - Login to hide

Notes

Requested: KCRW KLYH

Route

KCRW KLYH

ID Type Via Altitude (ft/m) Position (lat/lon) Dist (leg/tot) Name
O KCRW APT - 0 / 0 38.37277 / -81.59312 - / 0 nm Charleston Yeager
O KLYH APT - 0 / 0 37.32733 / -79.20014 129 / 129 nm LYNCHBURG RGNL PRESTON GLENN FLD

Altitude Profile

Advertisement - Login to hide

KCRW

Details ICAO KCRW (CRW)
Name Charleston Yeager
Region United States
Timezone America/New_York (UTC-4.0)
Stats Elevation 980 ft / 299 m (AMSL)
Location 38.375900° -81.593000°
Runways 1
Magnetic Variation 7.931° W

METAR

KCRW 201854Z 27003KT 10SM FEW044 SCT100 26/14 A3016 RMK AO2 SLP206 T02560139

Decode

TAF

KCRW 201735Z 2018/2118 23005KT P6SM SCT045 FM202200 VRB03KT P6SM FEW070 FM210200 00000KT P6SM SKC FM211500 21006KT P6SM SKC

Decode

Departure Runways

ID Width Length Bearing (true/mag) Surface Threshold Overrun Markings Lighting
05 151 ft / 46 m 6,808 ft / 2,075 m 47.00° / 54.93° CONCRETE 0 ft / 0 m 446 ft / 136 m PREC-APP CENTERLINE EDGE THRESHOLD
23 151 ft / 46 m 6,808 ft / 2,075 m 227.01° / 234.94° CONCRETE 499 ft / 152 m 0 ft / 0 m PREC-APP CENTERLINE EDGE THRESHOLD ALSF-I

KLYH

Details ICAO KLYH (LYH)
Name Lynchburg Regional/Preston Glenn Field
Region United States
Timezone America/New_York (UTC-4.0)
Stats Elevation 937 ft / 286 m (AMSL)
Location 37.326500° -79.200700°
Runways 2
Magnetic Variation 9.290° W

METAR

KLYH 201854Z 21005KT 10SM CLR 25/13 A3021 RMK AO2 SLP224 T02500128

Decode

TAF

KLYH 201731Z 2018/2118 VRB03KT P6SM FEW250 FM210500 00000KT 3SM BR BKN250 FM210800 00000KT 1/2SM FG VV002 FM211330 VRB03KT P6SM BKN050

Decode

Destination Runways

ID Width Length Bearing (true/mag) Surface Threshold Overrun Markings Lighting
04 151 ft / 46 m 7,107 ft / 2,166 m 27.69° / 36.98° ASPHALT 0 ft / 0 m 0 ft / 0 m PREC-APP EDGE THRESHOLD MALSR
17 75 ft / 23 m 3,391 ft / 1,034 m 161.21° / 170.50° ASPHALT 0 ft / 0 m 299 ft / 91 m APP EDGE THRESHOLD REIL-OMNI
22 151 ft / 46 m 7,107 ft / 2,166 m 207.69° / 216.98° ASPHALT 0 ft / 0 m 0 ft / 0 m APP EDGE THRESHOLD REIL-OMNI
35 75 ft / 23 m 3,391 ft / 1,034 m 341.21° / 350.50° ASPHALT 0 ft / 0 m 299 ft / 91 m APP EDGE THRESHOLD REIL-OMNI

Approach Navaids

Runway Type Ident Frequency Range Bearing (true/mag) Slope Elevation
04 LOC-ILS ILYH 110.10 MHz 18 nm / 33 km 27.69° / 36.98 ° - 937 ft / 286 m (AMSL)
04 GS ILYH 110.10 MHz 10 nm / 19 km 27.69° / 36.98 ° 3.00° 937 ft / 286 m (AMSL)
04 MM MM - - 27.79° / 37.08 ° - 938 ft / 286 m (AMSL)
04 OM OM - - 27.79° / 37.08 ° - 752 ft / 229 m (AMSL)